KSGJ

Northeast Florida Regional Airport

St Augustine, Florida, USA
METAR KSGJ 212156Z 24007KT 10SM CLR 24/23 A2987 RMK AO2 LTG DSNT NW TSE2059B15E30 SLP113 T02390228
Observed Flight Rules
Jun-21 @ 21:56 UTC (11 minutes ago) Visual Flight Rules
Wind Visibility Clouds
240° at 7 knots 10 miles
  • Clear skies
Temperatures Readings
Current 24°C / 75°F
Dewpoint 23°C / 73°F
Humidity 94%
Altimeter 29.87" Hg
Pressure 1011.3 hPa
Elevation 3
METAR KSGJ 212156Z 24007KT 10SM CLR 24/23 A2987 RMK AO2 LTG DSNT NW TSE2059B15E30 SLP113 T02390228
Observed Flight Rules
Jun-21 @ 21:56 UTC
(11 minutes ago)
VFR
Wind Visibility
240° at 7 knots 10 miles
Clouds
  • Clear skies
Temperature Dewpoint
24°C / 75°F 23°C / 73°F
Humidity Altimeter Pressure
94% 29.87" Hg 1011.3 hPa